Time;durP1;ratioP1;P1;durP2;ratioP2;P2;SDS_P1;SDS_P2;PMS_P1;PMS_P2;Temp;Humidity;BMP_temperature;BMP_pressure;BME280_temperature;BME280_humidity;BME280_pressure;Samples;Min_cycle;Max_cycle;Signal;HPM_P1;HPM_P2
2023/01/15 00:00:33;;;;;;;1.20;1.00;;;9.90;99.90;;;;;;5045873;28;20235;-70
2023/01/15 00:03:00;;;;;;;1.13;1.03;;;9.90;99.90;;;;;;5049434;28;20745;-71
2023/01/15 00:05:28;;;;;;;1.53;1.40;;;9.90;99.90;;;;;;5048553;28;20234;-71
2023/01/15 00:07:55;;;;;;;4.13;1.40;;;9.90;99.90;;;;;;5051272;28;20286;-71
2023/01/15 00:10:22;;;;;;;1.90;1.80;;;9.90;99.90;;;;;;5050237;28;20691;-71
2023/01/15 00:12:50;;;;;;;2.63;2.43;;;9.80;99.90;;;;;;5050341;28;20233;-70
2023/01/15 00:15:17;;;;;;;3.57;2.33;;;9.80;99.90;;;;;;5051472;28;20250;-71
2023/01/15 00:17:44;;;;;;;1.80;1.70;;;9.80;99.90;;;;;;5050936;28;20304;-70
2023/01/15 00:20:12;;;;;;;1.33;1.20;;;9.80;99.90;;;;;;5050923;28;21497;-70
2023/01/15 00:22:40;;;;;;;1.40;1.30;;;9.70;99.90;;;;;;5050362;28;20581;-71
2023/01/15 00:27:53;;;;;;;0.90;0.70;;;9.30;99.90;;;;;;5050178;28;20332;-70
2023/01/15 00:30:20;;;;;;;1.70;0.47;;;8.90;99.90;;;;;;5051201;28;20246;-70
2023/01/15 00:32:48;;;;;;;2.73;0.83;;;8.60;99.90;;;;;;5041615;28;20286;-70
2023/01/15 00:35:18;;;;;;;2.20;1.37;;;8.50;99.90;;;;;;5051264;28;20302;-70
2023/01/15 00:37:47;;;;;;;2.13;0.50;;;8.30;99.90;;;;;;5049894;28;20318;-70
2023/01/15 00:40:15;;;;;;;2.00;0.70;;;8.10;99.90;;;;;;5050595;28;20243;-70
2023/01/15 00:42:42;;;;;;;1.90;0.50;;;8.00;99.90;;;;;;5051148;28;20230;-70
2023/01/15 00:45:11;;;;;;;0.90;0.67;;;7.90;99.90;;;;;;5051055;28;20283;-70
2023/01/15 00:47:38;;;;;;;0.97;0.73;;;7.70;99.90;;;;;;5050933;28;20287;-70
2023/01/15 00:50:07;;;;;;;1.13;0.60;;;7.80;99.90;;;;;;5047688;28;20208;-71
2023/01/15 00:52:34;;;;;;;2.33;0.77;;;7.70;99.90;;;;;;5050241;28;20314;-70
2023/01/15 00:55:02;;;;;;;1.77;0.60;;;7.60;99.90;;;;;;5054968;28;20291;-70
2023/01/15 00:57:30;;;;;;;0.43;0.40;;;7.60;99.90;;;;;;5054868;28;20314;-70
2023/01/15 00:59:57;;;;;;;3.90;0.67;;;7.50;99.90;;;;;;5054602;28;20239;-70
2023/01/15 01:02:24;;;;;;;1.07;0.63;;;7.40;99.90;;;;;;5052609;28;20732;-70
2023/01/15 01:04:51;;;;;;;0.60;0.50;;;7.40;99.90;;;;;;5050604;28;20291;-70
2023/01/15 01:07:18;;;;;;;1.43;0.50;;;7.40;99.90;;;;;;5050166;28;20558;-70
2023/01/15 01:09:48;;;;;;;1.13;0.50;;;7.30;99.90;;;;;;5054297;28;20230;-70
2023/01/15 01:12:16;;;;;;;2.33;0.60;;;7.20;99.90;;;;;;5054609;28;20230;-70
2023/01/15 01:14:43;;;;;;;4.23;0.70;;;7.10;99.90;;;;;;5053309;28;20290;-70
2023/01/15 01:17:11;;;;;;;2.40;0.37;;;7.10;99.90;;;;;;5054494;28;20234;-70
2023/01/15 01:19:38;;;;;;;0.53;0.50;;;7.10;99.90;;;;;;5053676;28;20211;-71
2023/01/15 01:22:05;;;;;;;1.20;0.47;;;7.10;99.90;;;;;;5053778;28;20278;-70
2023/01/15 01:24:32;;;;;;;3.50;0.50;;;7.10;99.90;;;;;;5054227;28;20234;-70
2023/01/15 01:26:59;;;;;;;0.93;0.53;;;7.10;99.90;;;;;;5054189;28;20289;-70
2023/01/15 01:29:27;;;;;;;1.03;0.47;;;7.00;99.90;;;;;;5053715;28;20203;-70
2023/01/15 01:31:54;;;;;;;2.30;0.50;;;7.00;99.90;;;;;;5054085;28;20250;-70
2023/01/15 01:34:21;;;;;;;2.47;0.63;;;6.90;99.90;;;;;;5052970;28;20238;-70
2023/01/15 01:36:48;;;;;;;0.40;0.40;;;6.90;99.90;;;;;;5054343;28;20250;-70
2023/01/15 01:39:17;;;;;;;0.97;0.40;;;6.80;99.90;;;;;;5054585;28;20293;-70
2023/01/15 01:41:44;;;;;;;0.40;0.40;;;6.80;99.90;;;;;;5053495;28;20632;-70
2023/01/15 01:44:45;;;;;;;1.27;0.40;;;6.80;99.90;;;;;;5053428;28;20295;-70
2023/01/15 01:47:17;;;;;;;1.80;0.40;;;6.70;99.90;;;;;;5053195;28;20244;-70
2023/01/15 01:49:47;;;;;;;1.37;0.30;;;6.70;99.90;;;;;;5054104;28;20260;-69
2023/01/15 01:52:19;;;;;;;1.67;0.43;;;6.60;99.90;;;;;;5053146;28;20245;-69
2023/01/15 01:54:48;;;;;;;1.97;0.40;;;6.60;99.90;;;;;;5053032;28;20689;-70
2023/01/15 01:57:16;;;;;;;1.37;0.50;;;6.50;99.90;;;;;;5053806;28;20262;-70
2023/01/15 01:59:44;;;;;;;0.63;0.33;;;6.50;99.90;;;;;;5054390;28;20207;-69
2023/01/15 02:02:13;;;;;;;0.27;0.20;;;6.40;99.90;;;;;;5052418;28;20239;-70
2023/01/15 02:04:41;;;;;;;2.20;0.30;;;6.40;99.90;;;;;;5052504;28;20233;-70
2023/01/15 02:07:08;;;;;;;0.60;0.20;;;6.30;99.90;;;;;;5052724;28;20282;-70
2023/01/15 02:09:35;;;;;;;1.87;0.20;;;6.30;99.90;;;;;;5053643;28;20287;-70
2023/01/15 02:12:09;;;;;;;1.13;0.30;;;6.30;99.90;;;;;;5051706;28;20712;-70
2023/01/15 02:14:39;;;;;;;4.17;0.40;;;6.20;99.90;;;;;;5052533;28;20549;-70
2023/01/15 02:17:15;;;;;;;1.57;0.20;;;6.20;99.90;;;;;;5053222;28;20215;-69
2023/01/15 02:19:53;;;;;;;3.53;0.23;;;6.10;99.90;;;;;;5052606;28;20285;-69
2023/01/15 02:22:27;;;;;;;1.23;0.30;;;6.10;99.90;;;;;;5051914;28;20981;-70
2023/01/15 02:25:03;;;;;;;1.80;0.40;;;6.10;99.90;;;;;;5052125;28;20234;-69
2023/01/15 02:27:32;;;;;;;0.20;0.20;;;6.00;99.90;;;;;;5049947;28;20720;-69
2023/01/15 02:30:03;;;;;;;2.77;0.50;;;6.00;99.90;;;;;;5053070;28;20752;-69
2023/01/15 02:32:39;;;;;;;0.53;0.20;;;6.00;99.90;;;;;;5051976;28;20207;-69
2023/01/15 02:35:11;;;;;;;0.47;0.17;;;6.00;99.90;;;;;;5052162;28;20673;-69
2023/01/15 02:37:42;;;;;;;0.17;0.17;;;5.90;99.90;;;;;;5052402;28;20454;-70
2023/01/15 02:40:12;;;;;;;0.20;0.20;;;6.00;99.90;;;;;;5052943;28;20302;-70
2023/01/15 02:42:43;;;;;;;0.70;0.47;;;5.90;99.90;;;;;;5052493;28;20253;-70
2023/01/15 02:45:12;;;;;;;1.43;0.40;;;6.00;99.90;;;;;;5052787;28;20207;-70
2023/01/15 02:47:44;;;;;;;0.93;0.50;;;5.90;99.90;;;;;;5051048;28;20203;-70
2023/01/15 02:50:19;;;;;;;0.10;0.10;;;5.90;99.90;;;;;;5052907;28;20834;-69
2023/01/15 02:52:53;;;;;;;0.93;0.20;;;5.90;99.90;;;;;;5051697;28;20217;-69
2023/01/15 02:55:24;;;;;;;0.40;0.10;;;5.80;99.90;;;;;;5052333;28;20253;-70
2023/01/15 02:57:56;;;;;;;0.73;0.20;;;5.80;99.90;;;;;;5051654;28;20731;-70
2023/01/15 03:00:26;;;;;;;0.70;0.30;;;5.90;99.90;;;;;;5053398;28;20238;-70
2023/01/15 03:03:01;;;;;;;1.40;0.27;;;5.80;99.90;;;;;;5051793;28;20291;-70
2023/01/15 03:05:32;;;;;;;0.20;0.20;;;5.80;99.90;;;;;;5052965;28;20289;-69
2023/01/15 03:08:02;;;;;;;0.53;0.53;;;5.80;99.90;;;;;;5052371;28;20291;-69
2023/01/15 03:10:39;;;;;;;1.67;0.90;;;5.80;99.90;;;;;;5052422;28;20693;-70
2023/01/15 03:13:13;;;;;;;1.13;0.80;;;5.80;99.90;;;;;;5046406;28;20237;-69
2023/01/15 03:18:36;;;;;;;2.00;0.60;;;5.80;99.90;;;;;;5050966;28;20221;-70
2023/01/15 03:21:08;;;;;;;1.43;0.30;;;5.80;99.90;;;;;;5051883;28;20250;-69
2023/01/15 03:23:38;;;;;;;3.50;0.43;;;5.90;99.90;;;;;;5051268;28;20274;-69
2023/01/15 03:26:05;;;;;;;0.60;0.40;;;5.90;99.90;;;;;;5052477;28;20276;-69
2023/01/15 03:28:37;;;;;;;0.93;0.30;;;5.90;99.90;;;;;;5051402;28;20294;-69
2023/01/15 03:31:04;;;;;;;0.70;0.30;;;5.90;99.90;;;;;;5051943;28;20230;-69
2023/01/15 03:33:31;;;;;;;1.60;0.57;;;5.90;99.90;;;;;;5050273;28;20278;-69
2023/01/15 03:35:59;;;;;;;1.67;0.40;;;5.80;99.90;;;;;;5052491;28;20234;-70
2023/01/15 03:38:29;;;;;;;1.60;0.20;;;5.80;99.90;;;;;;5050711;28;20317;-70
2023/01/15 03:41:07;;;;;;;2.97;0.40;;;5.80;99.90;;;;;;5052179;28;20308;-69
2023/01/15 03:43:43;;;;;;;0.17;0.17;;;5.80;99.90;;;;;;5050935;28;20234;-69
2023/01/15 03:46:29;;;;;;;0.57;0.40;;;5.80;99.90;;;;;;5050760;28;20281;-69
2023/01/15 03:49:01;;;;;;;2.57;0.30;;;5.80;99.90;;;;;;5038082;28;20293;-69
2023/01/15 03:51:36;;;;;;;0.67;0.40;;;5.80;99.90;;;;;;5051805;28;20289;-69
2023/01/15 03:54:08;;;;;;;1.63;0.50;;;5.90;99.90;;;;;;5049947;28;20259;-69
2023/01/15 03:56:41;;;;;;;2.70;0.60;;;5.90;99.90;;;;;;5051086;28;20249;-69
2023/01/15 03:59:15;;;;;;;1.20;0.40;;;6.00;99.90;;;;;;5051471;28;20258;-69
2023/01/15 04:01:45;;;;;;;0.43;0.37;;;6.00;99.90;;;;;;5049433;28;20238;-70
2023/01/15 04:04:15;;;;;;;1.33;0.57;;;5.90;99.90;;;;;;5051133;28;20290;-69
2023/01/15 04:06:43;;;;;;;2.37;0.60;;;6.00;99.90;;;;;;5050424;28;20289;-69
2023/01/15 04:09:13;;;;;;;1.63;0.50;;;6.00;99.90;;;;;;5051299;28;20661;-69
2023/01/15 04:11:40;;;;;;;1.07;0.40;;;5.90;99.90;;;;;;5049399;28;20249;-69
2023/01/15 04:14:10;;;;;;;2.73;0.67;;;6.00;99.90;;;;;;5049892;28;20285;-70
2023/01/15 04:16:37;;;;;;;1.80;0.60;;;6.00;99.90;;;;;;5050496;28;20285;-69
2023/01/15 04:19:04;;;;;;;1.83;0.50;;;6.00;99.90;;;;;;5049555;28;20313;-69
2023/01/15 04:21:31;;;;;;;0.97;0.63;;;6.10;99.90;;;;;;5049857;28;20289;-69
2023/01/15 04:23:58;;;;;;;1.90;0.30;;;6.10;99.90;;;;;;5050664;28;20294;-69
2023/01/15 04:26:25;;;;;;;0.47;0.43;;;6.10;99.90;;;;;;5051082;28;20221;-69
2023/01/15 04:28:52;;;;;;;0.63;0.47;;;6.10;99.90;;;;;;5049485;28;20238;-69
2023/01/15 04:31:20;;;;;;;2.40;0.60;;;6.20;99.90;;;;;;5050526;28;20287;-70
2023/01/15 04:33:47;;;;;;;0.97;0.70;;;6.10;99.90;;;;;;5050428;28;20207;-69
2023/01/15 04:36:14;;;;;;;1.57;0.67;;;6.20;99.90;;;;;;5034827;28;20273;-69
2023/01/15 04:38:41;;;;;;;2.20;0.70;;;6.20;99.90;;;;;;5048833;28;20746;-69
2023/01/15 04:44:06;;;;;;;1.10;0.60;;;6.30;99.90;;;;;;5049179;28;20202;-70
2023/01/15 04:46:37;;;;;;;1.57;0.70;;;6.20;99.90;;;;;;5050294;28;20199;-69
2023/01/15 04:49:04;;;;;;;2.60;0.80;;;6.30;99.90;;;;;;5050055;28;20298;-70
2023/01/15 04:51:31;;;;;;;3.77;1.10;;;6.30;99.90;;;;;;5050419;28;20293;-69
2023/01/15 04:54:00;;;;;;;1.93;0.67;;;6.30;99.90;;;;;;5050538;28;20281;-69
2023/01/15 04:56:27;;;;;;;2.87;1.00;;;6.30;99.90;;;;;;5050762;28;20213;-70
2023/01/15 04:58:54;;;;;;;0.80;0.60;;;6.40;99.90;;;;;;5050759;28;20222;-69
2023/01/15 05:01:21;;;;;;;6.50;1.00;;;6.30;99.90;;;;;;5050057;28;20261;-69
2023/01/15 05:03:49;;;;;;;3.03;1.07;;;6.40;99.90;;;;;;5048743;28;20688;-69
2023/01/15 05:06:17;;;;;;;1.80;1.10;;;6.40;99.90;;;;;;5050312;28;20242;-69
2023/01/15 05:08:44;;;;;;;0.73;0.60;;;6.40;99.90;;;;;;5049154;28;20207;-70
2023/01/15 05:11:12;;;;;;;0.83;0.80;;;6.40;99.90;;;;;;5049718;28;20226;-70
2023/01/15 05:13:39;;;;;;;1.33;0.50;;;6.40;99.90;;;;;;5049526;28;20282;-70
2023/01/15 05:16:11;;;;;;;1.37;0.83;;;6.40;99.90;;;;;;5049716;28;20282;-69
2023/01/15 05:18:38;;;;;;;3.10;0.93;;;6.50;99.90;;;;;;5049180;28;20297;-69
2023/01/15 05:21:07;;;;;;;1.80;0.90;;;6.40;99.90;;;;;;5049900;28;20286;-70
2023/01/15 05:23:34;;;;;;;1.10;0.60;;;6.50;99.90;;;;;;5049724;28;20286;-69
2023/01/15 05:26:05;;;;;;;1.90;0.80;;;6.40;99.90;;;;;;5049560;28;20639;-69
2023/01/15 05:28:31;;;;;;;1.03;0.70;;;6.50;99.90;;;;;;5049296;28;20202;-69
2023/01/15 05:30:58;;;;;;;4.40;1.20;;;6.50;99.90;;;;;;5050341;28;20444;-69
2023/01/15 05:33:25;;;;;;;4.73;0.87;;;6.50;99.90;;;;;;5050019;28;20231;-70
2023/01/15 05:35:52;;;;;;;4.37;1.00;;;6.40;99.90;;;;;;5050652;28;20622;-70
2023/01/15 05:38:21;;;;;;;2.47;0.87;;;6.50;99.90;;;;;;5049878;28;20314;-70
2023/01/15 05:40:47;;;;;;;2.27;1.30;;;6.50;99.90;;;;;;5053752;28;20227;-70
2023/01/15 05:43:14;;;;;;;3.77;2.43;;;6.50;99.90;;;;;;5037904;28;20290;-70
2023/01/15 05:45:41;;;;;;;2.00;0.93;;;6.50;99.90;;;;;;5053563;28;20226;-70
2023/01/15 05:48:08;;;;;;;3.67;0.70;;;6.40;99.90;;;;;;5053221;28;20625;-70
2023/01/15 05:50:35;;;;;;;4.07;1.00;;;6.40;99.90;;;;;;5052734;28;20286;-70
2023/01/15 05:53:02;;;;;;;4.20;0.80;;;6.30;99.90;;;;;;5052765;28;20298;-70
2023/01/15 05:55:30;;;;;;;1.93;0.70;;;6.30;99.90;;;;;;5053902;28;20622;-69
2023/01/15 05:57:57;;;;;;;3.10;1.10;;;6.40;99.90;;;;;;5052947;28;20628;-70
2023/01/15 06:00:25;;;;;;;1.37;0.90;;;6.40;99.90;;;;;;5052894;28;20238;-70
2023/01/15 06:02:52;;;;;;;2.87;1.00;;;6.40;99.90;;;;;;5053567;28;20606;-69
2023/01/15 06:05:19;;;;;;;1.20;0.90;;;6.40;99.90;;;;;;5053950;28;20232;-69
2023/01/15 06:07:49;;;;;;;3.03;1.20;;;6.50;99.90;;;;;;5053929;28;20207;-69
2023/01/15 06:10:17;;;;;;;3.67;1.20;;;6.50;99.90;;;;;;5052745;28;20207;-69
2023/01/15 06:12:46;;;;;;;5.17;1.70;;;6.40;99.90;;;;;;5052457;28;20219;-70
2023/01/15 06:15:12;;;;;;;4.80;1.50;;;6.40;99.90;;;;;;5053373;28;20256;-69
2023/01/15 06:17:40;;;;;;;4.73;1.50;;;6.60;99.90;;;;;;5050572;28;20234;-69
2023/01/15 06:20:08;;;;;;;2.50;1.70;;;6.60;99.90;;;;;;5047420;28;20309;-69
2023/01/15 06:22:37;;;;;;;5.07;1.67;;;6.60;99.90;;;;;;5046751;28;20231;-69
2023/01/15 06:25:05;;;;;;;3.57;1.37;;;6.60;99.90;;;;;;5049578;28;20243;-69
2023/01/15 06:27:32;;;;;;;3.07;1.20;;;6.60;99.90;;;;;;5051927;28;20308;-69
2023/01/15 06:30:00;;;;;;;4.20;1.90;;;6.60;99.90;;;;;;5047332;28;20333;-69
2023/01/15 06:32:27;;;;;;;6.10;1.27;;;6.60;99.90;;;;;;5050240;28;20265;-69
2023/01/15 06:34:54;;;;;;;4.00;1.20;;;6.60;99.90;;;;;;5050744;28;20241;-69
2023/01/15 06:37:21;;;;;;;1.93;1.00;;;6.70;99.90;;;;;;5042963;28;20563;-69
2023/01/15 06:39:48;;;;;;;4.23;1.07;;;6.60;99.90;;;;;;5046391;28;20339;-69
2023/01/15 06:47:45;;;;;;;5.80;1.30;;;6.70;99.90;;;;;;5050141;28;20241;-69
2023/01/15 06:50:13;;;;;;;4.63;1.50;;;6.70;99.90;;;;;;5048124;28;20217;-70
2023/01/15 06:52:40;;;;;;;3.97;1.80;;;6.70;99.90;;;;;;5050322;28;20214;-69
2023/01/15 06:55:08;;;;;;;5.10;1.53;;;6.70;99.90;;;;;;5049419;28;20243;-70
2023/01/15 06:57:37;;;;;;;3.00;1.40;;;6.80;99.90;;;;;;5052972;28;20246;-70
2023/01/15 07:00:07;;;;;;;3.63;1.40;;;6.70;99.90;;;;;;5052763;28;20322;-70
2023/01/15 07:02:34;;;;;;;5.77;2.10;;;6.80;99.90;;;;;;5043027;28;20495;-69
2023/01/15 07:05:01;;;;;;;6.30;1.63;;;6.80;99.90;;;;;;5046302;28;20247;-70
2023/01/15 07:07:29;;;;;;;5.53;1.70;;;6.80;99.90;;;;;;5046725;28;20243;-70
2023/01/15 07:09:56;;;;;;;6.90;1.50;;;6.80;99.90;;;;;;5048402;28;20687;-70
2023/01/15 07:12:23;;;;;;;6.70;1.90;;;6.80;99.90;;;;;;5052007;28;20235;-70
2023/01/15 07:14:50;;;;;;;5.00;1.53;;;6.80;99.90;;;;;;5046887;28;20294;-70
2023/01/15 07:17:19;;;;;;;3.17;1.30;;;6.80;99.90;;;;;;5049304;28;20235;-70
2023/01/15 07:19:47;;;;;;;2.23;1.43;;;6.70;99.90;;;;;;5049487;28;20674;-70
2023/01/15 07:22:13;;;;;;;4.50;1.47;;;6.80;99.90;;;;;;5047238;28;20250;-70
2023/01/15 07:24:40;;;;;;;4.40;2.20;;;6.80;99.90;;;;;;5049390;28;20287;-70
2023/01/15 07:27:08;;;;;;;4.93;1.67;;;6.80;99.90;;;;;;5048829;28;20258;-69
2023/01/15 07:29:35;;;;;;;4.50;1.60;;;6.70;99.90;;;;;;5046059;28;20590;-70
2023/01/15 07:32:02;;;;;;;5.63;1.77;;;6.70;99.90;;;;;;5050768;28;20199;-70
2023/01/15 07:34:30;;;;;;;4.80;2.60;;;6.80;99.90;;;;;;5048388;28;20199;-69
2023/01/15 07:36:57;;;;;;;5.03;2.10;;;6.80;99.90;;;;;;5048668;28;20317;-70
2023/01/15 07:39:24;;;;;;;6.03;1.90;;;6.70;99.90;;;;;;5048811;28;20317;-70
2023/01/15 07:50:12;;;;;;;6.40;1.77;;;6.60;99.90;;;;;;5046929;28;20259;-70
2023/01/15 07:52:39;;;;;;;2.43;1.60;;;6.60;99.90;;;;;;5044093;28;20206;-70
2023/01/15 07:55:08;;;;;;;9.03;2.10;;;6.60;99.90;;;;;;5043827;28;20291;-70
2023/01/15 07:57:37;;;;;;;3.90;2.00;;;6.60;99.90;;;;;;5044497;28;20211;-70
2023/01/15 08:00:05;;;;;;;4.47;1.60;;;6.70;99.90;;;;;;5045571;28;20310;-70
2023/01/15 08:02:32;;;;;;;3.40;1.87;;;6.70;99.90;;;;;;5043791;28;20234;-70
2023/01/15 08:04:59;;;;;;;5.70;2.03;;;6.80;99.90;;;;;;5047558;28;20230;-70
2023/01/15 08:07:27;;;;;;;9.60;2.73;;;6.70;99.90;;;;;;5046089;28;20716;-70
2023/01/15 08:09:54;;;;;;;4.17;2.30;;;6.80;99.90;;;;;;5044735;28;20206;-70
2023/01/15 08:15:15;;;;;;;8.07;2.20;;;6.70;99.90;;;;;;5044425;28;20214;-69
2023/01/15 08:17:44;;;;;;;3.90;2.07;;;6.70;99.90;;;;;;5046447;28;20214;-70
2023/01/15 08:20:13;;;;;;;3.70;2.00;;;6.70;99.90;;;;;;5045587;28;20253;-70
2023/01/15 08:22:43;;;;;;;4.80;2.50;;;6.60;99.90;;;;;;5047872;28;20241;-70
2023/01/15 08:25:13;;;;;;;5.53;2.67;;;6.70;99.90;;;;;;5043469;28;20634;-69
2023/01/15 08:27:40;;;;;;;10.40;2.80;;;6.80;99.90;;;;;;5045249;28;20260;-69
2023/01/15 08:30:10;;;;;;;5.83;2.00;;;6.70;99.90;;;;;;5045062;28;20257;-70
2023/01/15 08:32:37;;;;;;;6.03;2.00;;;6.80;99.90;;;;;;5043513;28;20282;-70
2023/01/15 08:35:04;;;;;;;6.70;2.07;;;6.80;99.90;;;;;;5044601;28;20635;-70
2023/01/15 08:37:31;;;;;;;5.13;1.87;;;6.80;99.90;;;;;;5044434;28;20227;-70
2023/01/15 08:39:59;;;;;;;6.10;1.87;;;6.80;99.90;;;;;;5047985;28;20588;-70
2023/01/15 08:42:27;;;;;;;3.43;1.70;;;6.80;99.90;;;;;;5045561;28;20282;-70
2023/01/15 08:44:54;;;;;;;4.30;1.70;;;6.80;99.90;;;;;;5037787;28;20207;-70
2023/01/15 08:47:21;;;;;;;3.70;1.40;;;6.80;99.90;;;;;;5037943;28;20649;-70
2023/01/15 08:49:48;;;;;;;8.50;1.90;;;6.70;99.90;;;;;;5033596;28;20232;-70
2023/01/15 08:52:15;;;;;;;3.73;1.27;;;6.70;99.90;;;;;;5036319;28;20295;-69
2023/01/15 08:54:42;;;;;;;6.50;1.83;;;6.60;99.90;;;;;;5036012;28;20203;-69
2023/01/15 08:57:12;;;;;;;2.83;1.40;;;6.60;99.90;;;;;;5040103;28;20689;-69
2023/01/15 08:59:42;;;;;;;3.40;1.57;;;6.60;99.90;;;;;;5042242;28;20230;-70
2023/01/15 09:02:12;;;;;;;7.90;1.63;;;6.60;99.90;;;;;;5045075;28;20754;-70
2023/01/15 09:04:39;;;;;;;2.20;1.63;;;6.60;99.90;;;;;;5036799;28;20323;-69
2023/01/15 09:07:06;;;;;;;6.60;2.00;;;6.60;99.90;;;;;;5037098;28;20203;-70
2023/01/15 09:09:34;;;;;;;5.90;1.50;;;6.60;99.90;;;;;;5039817;28;20239;-69
2023/01/15 09:12:01;;;;;;;7.60;2.83;;;6.60;99.90;;;;;;5038799;28;20480;-69
2023/01/15 09:14:29;;;;;;;4.33;1.90;;;6.50;99.90;;;;;;5041558;28;20614;-71
2023/01/15 09:16:57;;;;;;;7.07;2.90;;;6.50;99.90;;;;;;5040064;28;20211;-72
2023/01/15 09:19:24;;;;;;;4.23;1.83;;;6.50;99.90;;;;;;5042255;28;20223;-71
2023/01/15 09:21:50;;;;;;;3.43;2.03;;;6.40;99.90;;;;;;5045892;28;20302;-72
2023/01/15 09:24:17;;;;;;;3.80;1.50;;;6.50;99.90;;;;;;5040876;28;20239;-72
2023/01/15 09:26:44;;;;;;;4.50;1.60;;;6.50;99.90;;;;;;5046135;28;20239;-72
2023/01/15 09:29:11;;;;;;;3.13;1.63;;;6.50;99.90;;;;;;5041505;28;20249;-72
2023/01/15 09:31:40;;;;;;;6.80;2.07;;;6.60;99.90;;;;;;5043181;28;20247;-71
2023/01/15 09:34:07;;;;;;;6.70;2.00;;;6.70;99.90;;;;;;5045106;28;20217;-72
2023/01/15 09:36:35;;;;;;;2.70;1.87;;;6.80;99.90;;;;;;5043474;28;20239;-72
2023/01/15 09:39:04;;;;;;;7.40;1.90;;;6.80;99.90;;;;;;5042921;28;20211;-72
2023/01/15 09:44:48;;;;;;;5.20;1.73;;;6.80;99.90;;;;;;5033918;28;20203;-72
2023/01/15 09:47:22;;;;;;;6.00;2.10;;;6.90;99.90;;;;;;5040695;28;20230;-72
2023/01/15 09:50:17;;;;;;;3.40;1.40;;;7.00;99.90;;;;;;5038210;28;20883;-72
2023/01/15 09:53:03;;;;;;;5.93;1.70;;;7.00;99.90;;;;;;5039338;28;20415;-72
2023/01/15 09:55:34;;;;;;;4.40;1.37;;;7.00;99.90;;;;;;5045038;28;20593;-72
2023/01/15 09:58:04;;;;;;;3.87;0.70;;;7.00;99.90;;;;;;5039689;28;20238;-72
2023/01/15 10:00:37;;;;;;;1.10;0.67;;;6.90;99.90;;;;;;5043921;28;20539;-72
2023/01/15 10:03:17;;;;;;;3.90;1.10;;;6.70;99.90;;;;;;5043491;28;20218;-72
2023/01/15 10:05:52;;;;;;;3.23;1.17;;;6.40;99.90;;;;;;5040951;28;20290;-72
2023/01/15 10:08:23;;;;;;;1.60;0.83;;;6.20;99.90;;;;;;5065090;28;20214;-72
2023/01/15 10:10:54;;;;;;;1.13;0.80;;;6.10;99.90;;;;;;5040377;28;20300;-71
2023/01/15 10:13:28;;;;;;;1.67;1.30;;;6.10;99.90;;;;;;5042318;28;20199;-72
2023/01/15 10:15:56;;;;;;;2.77;0.67;;;6.00;99.90;;;;;;5041212;28;20924;-72
2023/01/15 10:18:26;;;;;;;0.83;0.60;;;6.00;99.90;;;;;;5040336;28;20215;-72
2023/01/15 10:21:10;;;;;;;1.27;0.60;;;5.90;99.90;;;;;;5043161;28;20673;-71
2023/01/15 10:23:43;;;;;;;1.67;0.67;;;5.80;99.90;;;;;;5039414;28;20204;-72
2023/01/15 10:26:17;;;;;;;1.40;0.70;;;5.80;99.90;;;;;;5044013;28;20253;-71
2023/01/15 10:28:57;;;;;;;0.77;0.57;;;5.80;99.90;;;;;;5044577;28;20756;-72
2023/01/15 10:31:36;;;;;;;1.40;0.70;;;5.90;99.90;;;;;;5048069;28;20293;-71
2023/01/15 10:34:22;;;;;;;0.90;0.90;;;6.00;99.90;;;;;;5048134;28;20728;-72
2023/01/15 10:36:56;;;;;;;0.60;0.60;;;6.10;99.90;;;;;;5047971;28;20206;-71
2023/01/15 10:39:30;;;;;;;1.77;0.80;;;6.20;99.90;;;;;;5048989;28;20210;-72
2023/01/15 10:42:08;;;;;;;1.40;1.27;;;6.30;99.90;;;;;;5046658;28;20692;-72
2023/01/15 10:44:46;;;;;;;1.70;0.80;;;6.30;99.90;;;;;;5046924;28;20303;-71
2023/01/15 10:47:16;;;;;;;1.93;0.80;;;6.30;99.90;;;;;;5049345;28;20574;-71
2023/01/15 10:49:47;;;;;;;2.47;0.70;;;6.40;99.90;;;;;;5046512;28;20253;-71
2023/01/15 10:52:24;;;;;;;1.80;1.17;;;6.40;99.90;;;;;;5051286;28;20238;-71
2023/01/15 10:54:54;;;;;;;3.07;1.23;;;6.40;99.90;;;;;;5045141;28;20203;-71
2023/01/15 10:57:27;;;;;;;2.53;1.40;;;6.40;99.90;;;;;;5044845;28;20239;-72
2023/01/15 10:59:58;;;;;;;2.53;1.20;;;6.40;99.90;;;;;;5045496;28;20273;-72
2023/01/15 11:02:30;;;;;;;5.00;0.90;;;6.40;99.90;;;;;;5051959;28;20210;-72
2023/01/15 11:04:58;;;;;;;6.23;1.40;;;6.50;99.90;;;;;;5051009;28;20242;-71
2023/01/15 11:07:34;;;;;;;3.87;1.90;;;6.60;99.90;;;;;;5048258;28;20235;-72
2023/01/15 11:10:05;;;;;;;6.10;1.40;;;6.70;99.90;;;;;;5045119;28;20265;-73
2023/01/15 11:21:01;;;;;;;6.47;1.47;;;7.20;99.90;;;;;;5047338;28;20253;-72
2023/01/15 11:23:29;;;;;;;6.77;1.43;;;7.30;99.90;;;;;;5046318;28;20202;-72
2023/01/15 11:25:57;;;;;;;3.07;1.23;;;7.30;99.90;;;;;;5044458;28;20404;-73
2023/01/15 11:28:34;;;;;;;4.43;1.87;;;7.20;99.90;;;;;;5049459;28;20207;-71
2023/01/15 11:31:01;;;;;;;5.40;1.87;;;7.30;99.90;;;;;;5047780;28;20203;-72
2023/01/15 11:33:30;;;;;;;4.27;1.50;;;7.30;99.90;;;;;;5044125;28;20199;-72
2023/01/15 11:36:01;;;;;;;6.47;1.77;;;7.40;99.90;;;;;;5047791;28;20211;-72
2023/01/15 11:38:30;;;;;;;3.43;2.87;;;7.40;99.90;;;;;;5045056;28;20716;-72
2023/01/15 11:40:59;;;;;;;4.70;1.27;;;7.50;99.90;;;;;;5041312;28;20231;-71
2023/01/15 11:52:05;;;;;;;4.37;1.50;;;7.70;99.90;;;;;;5044047;28;20233;-72
2023/01/15 11:54:37;;;;;;;3.27;1.23;;;7.70;99.90;;;;;;5044281;28;20599;-72
2023/01/15 11:57:05;;;;;;;4.27;1.33;;;7.60;99.90;;;;;;5049469;28;20211;-72
2023/01/15 11:59:32;;;;;;;1.63;0.90;;;7.80;99.90;;;;;;5046913;28;20301;-72
2023/01/15 12:02:03;;;;;;;2.17;1.23;;;8.20;99.90;;;;;;5045734;28;20207;-72
2023/01/15 12:04:37;;;;;;;4.37;1.47;;;8.50;99.90;;;;;;5042661;28;20680;-72
2023/01/15 12:07:06;;;;;;;2.83;1.00;;;9.30;99.90;;;;;;5045077;28;20203;-72
2023/01/15 12:09:51;;;;;;;2.20;0.80;;;9.50;99.90;;;;;;5044981;28;20235;-72
2023/01/15 12:12:27;;;;;;;2.53;0.60;;;8.70;99.90;;;;;;5048925;28;20414;-71
2023/01/15 12:15:12;;;;;;;6.27;1.03;;;8.30;99.90;;;;;;5041797;28;20227;-72
2023/01/15 12:18:14;;;;;;;4.00;0.90;;;8.00;99.90;;;;;;5049068;28;20226;-72
2023/01/15 12:21:02;;;;;;;2.80;0.77;;;8.50;99.90;;;;;;5048007;28;20230;-72
2023/01/15 12:23:58;;;;;;;2.73;0.70;;;8.00;99.90;;;;;;5044839;28;20211;-72
2023/01/15 12:26:29;;;;;;;2.43;0.93;;;8.00;99.90;;;;;;5039850;28;20242;-72
2023/01/15 12:29:05;;;;;;;4.97;1.17;;;8.00;99.90;;;;;;5045430;28;20230;-72
2023/01/15 12:31:37;;;;;;;2.13;0.97;;;7.80;99.90;;;;;;5051296;28;20282;-72
2023/01/15 12:34:14;;;;;;;3.83;1.20;;;8.10;99.90;;;;;;5049390;28;20688;-72
2023/01/15 12:36:47;;;;;;;3.00;0.80;;;7.90;99.90;;;;;;5045557;28;20244;-72
2023/01/15 12:39:19;;;;;;;2.27;0.83;;;8.10;99.90;;;;;;5047398;28;20212;-72
2023/01/15 12:47:29;;;;;;;3.60;0.97;;;8.00;99.90;;;;;;5045306;28;20241;-73
2023/01/15 12:50:00;;;;;;;4.17;0.93;;;7.80;99.90;;;;;;5043788;28;20727;-72
2023/01/15 12:52:35;;;;;;;2.23;1.03;;;7.80;99.90;;;;;;5046318;28;20625;-72
2023/01/15 12:55:12;;;;;;;4.33;1.20;;;7.70;99.90;;;;;;5050108;28;20406;-72
2023/01/15 12:57:44;;;;;;;4.57;1.30;;;7.70;99.90;;;;;;5049213;28;20628;-73
2023/01/15 13:00:17;;;;;;;3.10;1.00;;;7.80;99.90;;;;;;5048639;28;20309;-72
2023/01/15 13:03:05;;;;;;;4.73;1.30;;;7.90;99.90;;;;;;5049732;28;20238;-72
2023/01/15 13:05:36;;;;;;;4.07;1.47;;;8.10;99.90;;;;;;5048641;28;20291;-72
2023/01/15 13:08:09;;;;;;;3.77;1.13;;;8.10;99.90;;;;;;5045946;28;20241;-72
2023/01/15 13:10:39;;;;;;;3.63;1.30;;;8.00;99.90;;;;;;5048464;28;20661;-72
2023/01/15 13:13:15;;;;;;;3.83;1.40;;;8.40;99.90;;;;;;5048333;28;20211;-72
2023/01/15 13:15:52;;;;;;;3.97;1.57;;;8.20;99.90;;;;;;5043854;28;20282;-72
2023/01/15 13:18:28;;;;;;;4.00;1.50;;;8.50;99.90;;;;;;5045273;28;20203;-72
2023/01/15 13:20:55;;;;;;;4.30;1.60;;;8.20;99.90;;;;;;5045705;28;20588;-71
2023/01/15 13:23:37;;;;;;;4.47;1.20;;;8.80;99.90;;;;;;5044829;28;20637;-70
2023/01/15 13:26:18;;;;;;;3.57;0.97;;;8.60;99.90;;;;;;5051572;28;20242;-69
2023/01/15 13:28:58;;;;;;;3.83;0.80;;;8.20;99.90;;;;;;5044914;28;20265;-69
2023/01/15 13:31:48;;;;;;;5.13;1.10;;;8.00;99.90;;;;;;5046547;28;20218;-70
2023/01/15 13:34:24;;;;;;;6.30;1.50;;;7.90;99.90;;;;;;5044320;28;20290;-69
2023/01/15 13:36:53;;;;;;;3.30;1.30;;;7.90;99.90;;;;;;5038881;28;20632;-69
2023/01/15 13:39:24;;;;;;;6.53;1.30;;;7.90;99.90;;;;;;5037429;28;20469;-69
2023/01/15 13:44:46;;;;;;;3.53;1.70;;;7.80;99.90;;;;;;5038980;28;20230;-69
2023/01/15 13:47:18;;;;;;;2.83;0.83;;;7.90;99.90;;;;;;5036528;28;20206;-69
2023/01/15 13:49:49;;;;;;;5.77;1.67;;;7.90;99.90;;;;;;5044657;28;20253;-69
2023/01/15 13:52:27;;;;;;;3.80;1.03;;;7.90;99.90;;;;;;5041240;28;20211;-69
2023/01/15 13:54:58;;;;;;;3.03;1.00;;;7.90;99.90;;;;;;5036547;28;20262;-69
2023/01/15 13:57:34;;;;;;;3.50;1.20;;;7.90;99.90;;;;;;5038748;28;20610;-69
2023/01/15 14:00:02;;;;;;;4.93;1.27;;;7.90;99.90;;;;;;5040794;28;20241;-69
2023/01/15 14:02:31;;;;;;;6.10;1.53;;;7.80;99.90;;;;;;5039376;28;20211;-69
2023/01/15 14:04:59;;;;;;;3.47;1.30;;;7.80;99.90;;;;;;5047822;28;20644;-69
2023/01/15 14:07:34;;;;;;;7.17;1.37;;;7.80;99.90;;;;;;5044050;28;20203;-69